createdAt,value
2023-04-18T00:01:03.270Z,74.12
2023-04-18T00:03:31.587Z,74.41
2023-04-18T00:06:02.313Z,75.17
2023-04-18T00:08:30.248Z,75.70
2023-04-18T00:10:58.384Z,75.78
2023-04-18T00:13:28.499Z,77.19
2023-04-18T00:15:56.782Z,75.60
2023-04-18T00:18:26.700Z,74.84
2023-04-18T00:20:54.872Z,75.06
2023-04-18T00:23:24.151Z,75.05
2023-04-18T00:25:52.081Z,75.05
2023-04-18T00:28:19.995Z,74.35
2023-04-18T00:30:49.998Z,75.81
2023-04-18T00:33:18.425Z,75.00
2023-04-18T00:35:46.363Z,74.47
2023-04-18T00:38:15.850Z,75.00
2023-04-18T00:40:45.151Z,75.06
2023-04-18T00:43:14.745Z,76.21
2023-04-18T00:45:42.731Z,75.90
2023-04-18T00:48:12.207Z,75.93
2023-04-18T00:50:41.744Z,76.33
2023-04-18T00:53:11.038Z,75.14
2023-04-18T00:55:39.885Z,76.11
2023-04-18T00:58:09.306Z,75.55
2023-04-18T01:00:37.423Z,76.04
2023-04-18T01:03:06.695Z,75.67
2023-04-18T01:05:35.185Z,75.24
2023-04-18T01:08:05.478Z,75.77
2023-04-18T01:10:36.932Z,75.72
2023-04-18T01:13:13.873Z,74.86
2023-04-18T01:15:42.973Z,75.67
2023-04-18T01:18:11.758Z,76.01
2023-04-18T01:20:42.847Z,77.07
2023-04-18T01:23:11.385Z,76.30
2023-04-18T01:25:40.759Z,76.34
2023-04-18T01:28:08.678Z,75.93
2023-04-18T01:30:36.635Z,75.94
2023-04-18T01:33:06.083Z,76.33
2023-04-18T01:35:34.550Z,76.60
2023-04-18T01:38:02.440Z,76.90
2023-04-18T01:40:30.940Z,76.87
2023-04-18T01:43:00.691Z,77.21
2023-04-18T01:45:28.665Z,76.76
2023-04-18T01:47:56.654Z,77.01
2023-04-18T01:50:24.678Z,76.76
2023-04-18T01:52:52.590Z,77.11
2023-04-18T01:55:20.668Z,76.89
2023-04-18T01:57:48.710Z,76.83
2023-04-18T02:00:18.974Z,76.51
2023-04-18T02:02:47.157Z,76.70
2023-04-18T02:05:15.144Z,76.81
2023-04-18T02:07:43.189Z,77.03
2023-04-18T02:10:12.096Z,76.65
2023-04-18T02:12:40.196Z,76.19
2023-04-18T02:15:09.212Z,76.54
2023-04-18T02:17:38.875Z,76.72
2023-04-18T02:20:09.290Z,76.22
2023-04-18T02:22:37.725Z,76.20
2023-04-18T02:25:06.256Z,77.28
2023-04-18T02:27:34.196Z,76.29
2023-04-18T02:33:54.537Z,77.33
2023-04-18T02:36:23.355Z,77.52
2023-04-18T02:38:51.235Z,77.48
2023-04-18T02:41:21.722Z,77.90
2023-04-18T02:43:49.792Z,78.70
2023-04-18T02:46:20.511Z,79.14
2023-04-18T02:48:50.005Z,80.00
2023-04-18T02:51:21.087Z,80.45
2023-04-18T02:53:49.370Z,80.47
2023-04-18T02:56:18.896Z,80.72
2023-04-18T02:59:12.932Z,80.24
2023-04-18T03:02:04.809Z,79.89
2023-04-18T03:04:33.835Z,80.16
2023-04-18T03:07:06.308Z,79.86
2023-04-18T03:09:37.369Z,80.54
2023-04-18T03:12:13.881Z,81.16
2023-04-18T03:14:44.494Z,82.26
2023-04-18T03:17:14.305Z,81.71
2023-04-18T03:19:46.880Z,80.90
2023-04-18T03:22:18.199Z,81.25
2023-04-18T03:24:53.477Z,80.33
2023-04-18T03:27:24.177Z,80.63
2023-04-18T03:29:52.071Z,80.27
2023-04-18T03:32:20.111Z,80.87
2023-04-18T03:34:48.133Z,80.80
2023-04-18T03:37:17.566Z,80.62
2023-04-18T03:39:51.165Z,80.91
2023-04-18T03:42:19.097Z,80.09
2023-04-18T03:44:47.004Z,80.45
2023-04-18T03:47:16.873Z,79.83
2023-04-18T03:49:48.437Z,79.56
2023-04-18T03:52:20.154Z,79.31
2023-04-18T03:54:48.472Z,79.16
2023-04-18T03:57:17.966Z,79.00
2023-04-18T03:59:47.955Z,79.63
2023-04-18T04:02:16.337Z,80.44
2023-04-18T04:04:44.345Z,80.51
2023-04-18T04:07:13.011Z,81.01
2023-04-18T04:09:42.295Z,80.32
2023-04-18T04:12:10.277Z,80.24
2023-04-18T04:14:38.259Z,80.32
2023-04-18T04:17:06.820Z,79.65
2023-04-18T04:19:35.470Z,78.98
2023-04-18T04:22:11.205Z,78.82
2023-04-18T04:24:39.661Z,79.25
2023-04-18T04:27:11.070Z,82.33
2023-04-18T04:29:39.793Z,84.87
2023-04-18T04:32:09.149Z,84.62
2023-04-18T04:34:41.425Z,83.41
2023-04-18T04:37:13.984Z,82.21
2023-04-18T04:39:52.885Z,81.29
2023-04-18T04:42:42.313Z,80.05
2023-04-18T04:45:17.464Z,78.76
2023-04-18T04:47:46.900Z,78.54
2023-04-18T04:50:15.877Z,79.16
2023-04-18T04:52:43.958Z,78.75
2023-04-18T04:55:11.994Z,78.57
2023-04-18T04:57:43.023Z,79.09
2023-04-18T05:00:25.956Z,78.98
2023-04-18T05:02:55.173Z,78.08
2023-04-18T05:05:26.445Z,77.89
2023-04-18T05:07:54.352Z,77.50
2023-04-18T05:10:22.478Z,77.57
2023-04-18T05:12:51.770Z,77.26
2023-04-18T05:15:20.068Z,77.44
2023-04-18T05:17:48.018Z,78.72
2023-04-18T05:20:16.078Z,78.18
2023-04-18T05:22:44.014Z,77.73
2023-04-18T05:25:12.405Z,77.93
2023-04-18T05:27:40.617Z,78.10
2023-04-18T05:30:11.567Z,78.17
2023-04-18T05:32:40.033Z,77.36
2023-04-18T05:35:09.023Z,78.37
2023-04-18T05:37:37.057Z,78.57
2023-04-18T05:40:05.639Z,78.82
2023-04-18T05:42:33.587Z,79.49
2023-04-18T05:45:01.591Z,79.06
2023-04-18T05:47:31.141Z,78.93
2023-04-18T05:49:59.089Z,78.23
2023-04-18T05:52:27.188Z,78.63
2023-04-18T05:54:55.175Z,78.27
2023-04-18T05:57:23.060Z,78.78
2023-04-18T05:59:50.979Z,78.06
2023-04-18T06:02:18.970Z,78.29
2023-04-18T06:04:49.012Z,77.95
2023-04-18T06:07:17.181Z,77.83
2023-04-18T06:09:45.041Z,78.02
2023-04-18T06:12:12.932Z,76.84
2023-04-18T06:14:40.833Z,76.25
2023-04-18T06:17:10.155Z,77.53
2023-04-18T06:19:38.535Z,76.60
2023-04-18T06:22:08.158Z,76.50
2023-04-18T06:24:37.401Z,77.11
2023-04-18T06:29:36.204Z,77.20
2023-04-18T06:32:06.519Z,76.44
2023-04-18T06:34:34.446Z,75.94
2023-04-18T06:37:03.141Z,75.87
2023-04-18T06:39:32.507Z,76.49
2023-04-18T06:42:00.440Z,76.27
2023-04-18T06:44:29.675Z,75.52
2023-04-18T06:46:57.653Z,75.37
2023-04-18T06:49:26.706Z,75.74
2023-04-18T06:51:55.217Z,75.72
2023-04-18T06:54:23.088Z,75.57
2023-04-18T06:56:53.557Z,75.58
2023-04-18T06:59:21.687Z,75.74
2023-04-18T07:01:50.787Z,77.08
2023-04-18T07:04:19.146Z,77.36
2023-04-18T07:06:47.440Z,76.78
2023-04-18T07:09:15.445Z,77.39
2023-04-18T07:11:43.602Z,76.93
2023-04-18T07:14:13.313Z,77.53
2023-04-18T07:16:41.553Z,78.50
2023-04-18T07:19:09.497Z,77.05
2023-04-18T07:21:37.770Z,77.92
2023-04-18T07:24:05.995Z,77.11
2023-04-18T07:26:33.910Z,77.32
2023-04-18T07:29:01.805Z,76.42
2023-04-18T07:31:31.371Z,76.10
2023-04-18T07:33:59.692Z,75.04
2023-04-18T07:36:28.351Z,76.06
2023-04-18T07:38:56.285Z,74.52
2023-04-18T07:41:24.170Z,75.47
2023-04-18T07:43:52.091Z,74.93
2023-04-18T07:46:20.046Z,75.40
2023-04-18T07:48:49.365Z,75.75
2023-04-18T07:51:17.324Z,74.00
2023-04-18T07:53:45.270Z,73.02
2023-04-18T07:56:14.528Z,73.03
2023-04-18T07:58:42.463Z,72.49
2023-04-18T08:01:13.608Z,71.91
2023-04-18T08:03:41.785Z,71.15
2023-04-18T08:06:14.302Z,71.19
2023-04-18T08:08:42.407Z,70.07
2023-04-18T08:11:10.390Z,70.98
2023-04-18T08:13:38.356Z,70.16
2023-04-18T08:16:06.717Z,71.03
2023-04-18T08:18:34.644Z,71.08
2023-04-18T08:21:02.565Z,70.03
2023-04-18T08:23:31.881Z,69.72
2023-04-18T08:25:59.781Z,69.89
2023-04-18T08:28:27.691Z,70.06
2023-04-18T08:30:56.638Z,69.80
2023-04-18T08:33:24.942Z,70.04
2023-04-18T08:35:52.921Z,71.81
2023-04-18T08:38:20.896Z,71.18
2023-04-18T08:40:50.255Z,70.69
2023-04-18T08:43:18.161Z,70.40
2023-04-18T08:45:47.389Z,69.66
2023-04-18T08:48:16.350Z,70.59
2023-04-18T08:50:45.400Z,70.51
2023-04-18T08:53:13.466Z,70.78
2023-04-18T08:55:42.057Z,70.62
2023-04-18T08:58:12.567Z,69.87
2023-04-18T09:00:40.540Z,70.11
2023-04-18T09:03:08.764Z,70.79
2023-04-18T09:05:36.757Z,70.28
2023-04-18T09:08:23.725Z,69.67
2023-04-18T09:10:51.833Z,69.50
2023-04-18T09:13:39.694Z,68.87
2023-04-18T09:16:07.987Z,69.86
2023-04-18T09:18:36.359Z,69.05
2023-04-18T09:21:19.649Z,69.86
2023-04-18T09:23:48.066Z,69.89
2023-04-18T09:26:33.839Z,70.21
2023-04-18T09:29:03.273Z,69.83
2023-04-18T09:31:31.242Z,69.61
2023-04-18T09:34:00.720Z,70.38
2023-04-18T09:36:29.070Z,69.63
2023-04-18T09:38:57.422Z,69.78
2023-04-18T09:41:25.723Z,70.02
2023-04-18T09:44:14.937Z,67.57
2023-04-18T09:46:46.026Z,68.54
2023-04-18T09:49:15.151Z,68.42
2023-04-18T09:51:44.659Z,70.29
2023-04-18T09:54:16.999Z,70.01
2023-04-18T09:56:46.089Z,69.15
2023-04-18T09:59:20.987Z,69.94
2023-04-18T10:01:50.882Z,68.42
2023-04-18T10:04:20.065Z,67.86
2023-04-18T10:06:48.193Z,67.48
2023-04-18T10:09:16.980Z,69.08
2023-04-18T10:11:45.425Z,67.79
2023-04-18T10:14:16.966Z,67.84
2023-04-18T10:16:48.642Z,66.71
2023-04-18T10:19:23.751Z,66.66
2023-04-18T10:21:55.837Z,65.78
2023-04-18T10:24:53.307Z,66.44
2023-04-18T10:27:59.490Z,66.02
2023-04-18T10:30:52.168Z,66.92
2023-04-18T10:33:32.159Z,65.72
2023-04-18T10:36:03.105Z,65.00
2023-04-18T10:38:31.165Z,65.34
2023-04-18T10:41:21.328Z,64.54
2023-04-18T10:44:15.838Z,64.06
2023-04-18T10:47:33.026Z,66.25
2023-04-18T10:50:06.586Z,65.50
2023-04-18T10:52:35.529Z,64.32
2023-04-18T10:55:10.335Z,64.03
2023-04-18T10:57:39.919Z,64.16
2023-04-18T11:00:11.426Z,63.86
2023-04-18T11:02:41.518Z,62.85
2023-04-18T11:05:10.754Z,64.15
2023-04-18T11:07:40.191Z,63.71
2023-04-18T11:10:10.068Z,63.44
2023-04-18T11:12:40.867Z,62.07
2023-04-18T11:15:12.386Z,63.44
2023-04-18T11:17:42.006Z,63.73
2023-04-18T11:20:12.859Z,63.47
2023-04-18T11:22:48.685Z,65.19
2023-04-18T11:25:16.858Z,63.27
2023-04-18T11:27:46.174Z,62.22
2023-04-18T11:30:15.899Z,64.78
2023-04-18T11:32:45.574Z,64.18
2023-04-18T11:35:15.072Z,65.30
2023-04-18T11:37:45.862Z,64.03
2023-04-18T11:40:14.769Z,63.38
2023-04-18T11:42:43.230Z,63.51
2023-04-18T11:45:12.898Z,62.05
2023-04-18T11:47:41.996Z,61.89
2023-04-18T11:50:12.983Z,62.31
2023-04-18T11:52:42.880Z,61.57
2023-04-18T11:55:17.603Z,61.15
2023-04-18T11:57:55.957Z,61.31
2023-04-18T12:00:35.419Z,60.81
2023-04-18T12:03:05.490Z,61.11
2023-04-18T12:05:37.426Z,62.17
2023-04-18T12:08:10.123Z,60.87
2023-04-18T12:10:47.301Z,61.63
2023-04-18T12:13:15.537Z,60.75
2023-04-18T12:15:45.425Z,60.74
2023-04-18T12:18:15.254Z,60.37
2023-04-18T12:20:50.285Z,59.29
2023-04-18T12:23:32.650Z,59.54
2023-04-18T12:26:01.747Z,59.68
2023-04-18T12:28:29.752Z,59.30
2023-04-18T12:30:57.920Z,58.00
2023-04-18T12:33:26.230Z,58.56
2023-04-18T12:35:56.112Z,57.46
2023-04-18T12:38:25.136Z,57.65
2023-04-18T12:40:53.392Z,57.61
2023-04-18T12:43:21.380Z,57.79
2023-04-18T12:45:50.597Z,58.08
2023-04-18T12:48:18.569Z,58.21
2023-04-18T12:50:46.506Z,57.51
2023-04-18T12:53:15.809Z,56.40
2023-04-18T12:55:43.721Z,58.41
2023-04-18T12:58:11.694Z,56.86
2023-04-18T13:00:39.663Z,58.71
2023-04-18T13:03:08.662Z,57.09
2023-04-18T13:05:37.634Z,57.21
2023-04-18T13:08:16.339Z,56.33
2023-04-18T13:10:47.697Z,56.43
2023-04-18T13:13:15.767Z,55.97
2023-04-18T13:15:43.704Z,56.32
2023-04-18T13:18:11.639Z,54.58
2023-04-18T13:20:39.540Z,55.53
2023-04-18T13:23:07.448Z,54.98
2023-04-18T13:25:35.419Z,55.60
2023-04-18T13:28:04.730Z,54.92
2023-04-18T13:30:34.215Z,54.73
2023-04-18T13:33:02.251Z,54.50
2023-04-18T13:35:30.253Z,54.40
2023-04-18T13:37:58.154Z,53.84
2023-04-18T13:40:26.540Z,54.01
2023-04-18T13:42:54.507Z,53.31
2023-04-18T13:45:23.782Z,53.59
2023-04-18T13:47:51.841Z,53.57
2023-04-18T13:50:20.332Z,51.21
2023-04-18T13:52:49.364Z,50.56
2023-04-18T13:55:17.958Z,51.54
2023-04-18T13:57:45.875Z,53.16
2023-04-18T14:00:15.265Z,51.50
2023-04-18T14:02:44.659Z,50.43
2023-04-18T14:05:12.807Z,50.25
2023-04-18T14:07:40.736Z,50.37
2023-04-18T14:10:09.624Z,49.99
2023-04-18T14:12:37.569Z,49.73
2023-04-18T14:15:06.495Z,50.25
2023-04-18T14:17:34.850Z,49.55
2023-04-18T14:20:05.904Z,50.62
2023-04-18T14:22:33.905Z,50.20
2023-04-18T14:25:01.808Z,50.16
2023-04-18T14:27:29.733Z,49.16
2023-04-18T14:29:57.573Z,49.46
2023-04-18T14:32:25.643Z,49.13
2023-04-18T14:34:53.627Z,49.08
2023-04-18T14:37:23.106Z,49.32
2023-04-18T14:39:51.047Z,47.25
2023-04-18T14:42:19.319Z,45.10
2023-04-18T14:44:47.277Z,44.40
2023-04-18T14:47:15.250Z,45.56
2023-04-18T14:49:43.148Z,45.21
2023-04-18T14:52:11.057Z,44.46
2023-04-18T14:54:40.353Z,43.65
2023-04-18T14:57:08.579Z,43.89
2023-04-18T14:59:36.470Z,44.00
2023-04-18T15:02:04.506Z,44.95
2023-04-18T15:04:32.731Z,45.26
2023-04-18T15:07:00.701Z,42.27
2023-04-18T15:09:28.588Z,43.33
2023-04-18T15:11:58.300Z,44.51
2023-04-18T15:14:26.294Z,43.13
2023-04-18T15:16:54.318Z,42.99
2023-04-18T15:19:22.318Z,43.48
2023-04-18T15:21:50.286Z,44.78
2023-04-18T15:24:18.259Z,44.66
2023-04-18T15:26:46.490Z,43.50
2023-04-18T15:29:15.901Z,44.61
2023-04-18T15:31:43.819Z,44.00
2023-04-18T15:34:12.942Z,45.01
2023-04-18T15:36:41.509Z,45.17
2023-04-18T15:39:09.511Z,45.17
2023-04-18T15:41:38.137Z,44.47
2023-04-18T15:44:07.903Z,45.44
2023-04-18T15:46:37.597Z,45.92
2023-04-18T15:49:05.626Z,45.99
2023-04-18T15:51:33.511Z,45.65
2023-04-18T15:54:01.563Z,46.31
2023-04-18T15:56:32.514Z,46.23
2023-04-18T15:59:02.180Z,46.61
2023-04-18T16:01:30.281Z,46.91
2023-04-18T16:03:59.693Z,46.63
2023-04-18T16:06:27.710Z,46.45
2023-04-18T16:08:55.586Z,46.25
2023-04-18T16:11:26.148Z,46.40
2023-04-18T16:13:55.697Z,46.65
2023-04-18T16:16:23.716Z,46.62
2023-04-18T16:18:51.717Z,46.95
2023-04-18T16:21:21.235Z,47.36
2023-04-18T16:23:49.885Z,48.14
2023-04-18T16:26:17.847Z,47.11
2023-04-18T16:28:45.837Z,47.14
2023-04-18T16:31:15.296Z,47.52
2023-04-18T16:33:43.413Z,47.18
2023-04-18T16:36:11.343Z,47.08
2023-04-18T16:38:40.678Z,47.06
2023-04-18T16:41:08.592Z,47.39
2023-04-18T16:43:37.953Z,47.50
2023-04-18T16:46:06.536Z,48.51
2023-04-18T16:48:34.514Z,47.17
2023-04-18T16:51:02.428Z,47.59
2023-04-18T16:53:30.326Z,47.77
2023-04-18T16:56:00.886Z,48.42
2023-04-18T16:58:28.777Z,48.46
2023-04-18T17:00:56.799Z,48.29
2023-04-18T17:03:24.965Z,48.19
2023-04-18T17:05:53.160Z,48.17
2023-04-18T17:08:21.068Z,48.56
2023-04-18T17:10:52.140Z,48.52
2023-04-18T17:13:22.418Z,49.36
2023-04-18T17:15:50.371Z,50.38
2023-04-18T17:18:18.304Z,50.31
2023-04-18T17:20:46.298Z,50.79
2023-04-18T17:23:14.209Z,50.88
2023-04-18T17:25:42.197Z,50.97
2023-04-18T17:28:10.125Z,51.07
2023-04-18T17:30:42.535Z,51.31
2023-04-18T17:33:11.015Z,51.54
2023-04-18T17:35:41.347Z,51.37
2023-04-18T17:38:10.568Z,51.02
2023-04-18T17:40:39.429Z,51.06
2023-04-18T17:43:07.328Z,51.01
2023-04-18T17:45:35.561Z,51.66
2023-04-18T17:48:05.229Z,51.88
2023-04-18T17:50:36.949Z,51.94
2023-04-18T17:53:05.087Z,52.44
2023-04-18T17:55:33.047Z,52.59
2023-04-18T17:58:00.942Z,53.10
2023-04-18T18:00:29.080Z,53.16
2023-04-18T18:02:57.283Z,53.81
2023-04-18T18:05:26.910Z,53.76
2023-04-18T18:07:56.238Z,54.60
2023-04-18T18:10:24.949Z,54.70
2023-04-18T18:12:52.960Z,55.19
2023-04-18T18:15:21.101Z,55.50
2023-04-18T18:17:49.714Z,55.85
2023-04-18T18:20:18.251Z,56.07
2023-04-18T18:22:47.642Z,56.35
2023-04-18T18:25:15.609Z,56.27
2023-04-18T18:27:43.528Z,56.72
2023-04-18T18:30:11.830Z,56.67
2023-04-18T18:32:39.924Z,56.99
2023-04-18T18:35:08.385Z,56.92
2023-04-18T18:37:36.324Z,57.29
2023-04-18T18:40:07.369Z,57.30
2023-04-18T18:42:35.431Z,57.61
2023-04-18T18:45:03.872Z,57.29
2023-04-18T18:47:31.799Z,57.66
2023-04-18T18:49:59.702Z,57.49
2023-04-18T18:52:29.729Z,57.55
2023-04-18T18:54:57.797Z,58.19
2023-04-18T18:57:27.317Z,57.85
2023-04-18T18:59:55.988Z,58.44
2023-04-18T19:02:24.306Z,57.82
2023-04-18T19:04:52.613Z,58.08
2023-04-18T19:07:20.652Z,58.01
2023-04-18T19:09:49.467Z,57.81
2023-04-18T19:12:17.447Z,57.35
2023-04-18T19:14:46.927Z,57.08
2023-04-18T19:17:17.586Z,57.25
2023-04-18T19:19:46.614Z,57.60
2023-04-18T19:22:14.596Z,57.04
2023-04-18T19:24:42.504Z,57.48
2023-04-18T19:27:10.493Z,57.63
2023-04-18T19:29:38.407Z,57.95
2023-04-18T19:32:07.919Z,58.12
2023-04-18T19:34:35.810Z,57.75
2023-04-18T19:37:03.856Z,58.20
2023-04-18T19:39:32.045Z,58.60
2023-04-18T19:41:59.955Z,58.49
2023-04-18T19:44:27.890Z,58.84
2023-04-18T19:46:55.803Z,59.15
2023-04-18T19:49:25.100Z,59.20
2023-04-18T19:51:53.496Z,58.92
2023-04-18T19:54:22.137Z,59.28
2023-04-18T19:56:51.366Z,59.32
2023-04-18T19:59:19.299Z,58.85
2023-04-18T20:01:47.629Z,58.75
2023-04-18T20:04:15.716Z,58.88
2023-04-18T20:06:45.245Z,58.77
2023-04-18T20:09:16.852Z,58.63
2023-04-18T20:11:46.471Z,58.84
2023-04-18T20:14:14.398Z,58.64
2023-04-18T20:16:42.895Z,59.05
2023-04-18T20:19:12.502Z,59.30
2023-04-18T20:21:41.115Z,60.12
2023-04-18T20:24:10.709Z,60.43
2023-04-18T20:26:38.650Z,60.50
2023-04-18T20:29:06.577Z,60.79
2023-04-18T20:31:35.042Z,60.99
2023-04-18T20:34:02.936Z,61.23
2023-04-18T20:36:31.145Z,61.49
2023-04-18T20:39:02.351Z,61.93
2023-04-18T20:41:32.479Z,62.09
2023-04-18T20:44:00.389Z,62.21
2023-04-18T20:46:28.263Z,62.28
2023-04-18T20:48:56.175Z,62.45
2023-04-18T20:51:24.068Z,62.46
2023-04-18T20:53:52.011Z,63.56
2023-04-18T20:56:20.144Z,62.96
2023-04-18T20:58:49.415Z,63.54
2023-04-18T21:01:17.342Z,63.57
2023-04-18T21:03:45.450Z,63.69
2023-04-18T21:06:13.615Z,64.40
2023-04-18T21:08:41.536Z,64.46
2023-04-18T21:11:09.616Z,64.94
2023-04-18T21:13:38.083Z,64.83
2023-04-18T21:16:10.267Z,65.00
2023-04-18T21:18:38.320Z,65.04
2023-04-18T21:21:07.169Z,64.80
2023-04-18T21:23:41.637Z,64.83
2023-04-18T21:26:12.415Z,64.93
2023-04-18T21:28:57.237Z,64.67
2023-04-18T21:31:27.883Z,64.36
2023-04-18T21:33:56.473Z,64.92
2023-04-18T21:36:26.582Z,65.10
2023-04-18T21:38:54.933Z,65.24
2023-04-18T21:41:23.195Z,65.13
2023-04-18T21:43:51.542Z,65.48
2023-04-18T21:46:20.100Z,65.49
2023-04-18T21:48:49.763Z,65.70
2023-04-18T21:51:18.427Z,65.38
2023-04-18T21:53:46.352Z,65.78
2023-04-18T21:56:14.323Z,65.75
2023-04-18T21:58:42.318Z,65.89
2023-04-18T22:01:10.333Z,65.94
2023-04-18T22:03:38.524Z,66.22
2023-04-18T22:06:08.019Z,66.20
2023-04-18T22:08:36.123Z,66.26
2023-04-18T22:11:04.758Z,66.44
2023-04-18T22:13:33.883Z,66.90
2023-04-18T22:16:03.696Z,67.01
2023-04-18T22:18:34.342Z,67.12
2023-04-18T22:21:03.296Z,67.37
2023-04-18T22:23:32.795Z,67.41
2023-04-18T22:26:00.751Z,67.75
2023-04-18T22:28:28.939Z,68.02
2023-04-18T22:30:57.142Z,67.85
2023-04-18T22:33:25.394Z,67.77
2023-04-18T22:35:54.223Z,68.02
2023-04-18T22:38:22.154Z,68.50
2023-04-18T22:40:51.433Z,68.62
2023-04-18T22:43:22.858Z,68.39
2023-04-18T22:45:51.090Z,68.39
2023-04-18T22:48:19.123Z,68.63
2023-04-18T22:50:47.462Z,68.71
2023-04-18T22:53:15.411Z,68.67
2023-04-18T22:55:45.125Z,68.99
2023-04-18T22:58:14.559Z,69.40
2023-04-18T23:00:42.570Z,69.52
2023-04-18T23:03:10.736Z,69.39
2023-04-18T23:05:38.786Z,69.48
2023-04-18T23:08:07.146Z,69.59
2023-04-18T23:10:35.261Z,69.59
2023-04-18T23:13:03.207Z,69.27
2023-04-18T23:15:32.656Z,69.69
2023-04-18T23:18:00.705Z,70.00
2023-04-18T23:20:28.749Z,70.17
2023-04-18T23:22:56.653Z,69.88
2023-04-18T23:25:24.654Z,70.14
2023-04-18T23:27:52.563Z,70.30
2023-04-18T23:30:20.537Z,70.37
2023-04-18T23:32:49.855Z,70.50
2023-04-18T23:35:18.198Z,70.75
2023-04-18T23:37:46.130Z,71.16
2023-04-18T23:40:14.446Z,71.95
2023-04-18T23:42:42.337Z,71.68
2023-04-18T23:53:28.353Z,71.59
2023-04-18T23:55:56.486Z,71.84
2023-04-18T23:58:25.002Z,72.38
